createdAt,value
2019-01-04T00:01:41.134Z,33.97
2019-01-04T00:06:46.768Z,30.10
2019-01-04T00:11:58.476Z,35.20
2019-01-04T00:17:03.879Z,33.23
2019-01-04T00:22:22.696Z,32.70
2019-01-04T00:27:27.823Z,34.10
2019-01-04T00:32:57.080Z,34.37
2019-01-04T00:38:03.084Z,32.40
2019-01-04T00:43:08.200Z,33.87
2019-01-04T00:48:13.489Z,35.17
2019-01-04T00:53:18.864Z,30.83
2019-01-04T00:59:03.740Z,34.97
2019-01-04T01:04:53.074Z,31.23
2019-01-04T01:10:33.652Z,34.67
2019-01-04T01:16:08.504Z,35.53
2019-01-04T01:21:50.600Z,38.60
2019-01-04T01:27:54.390Z,32.20
2019-01-04T01:33:33.810Z,33.13
2019-01-04T01:39:17.751Z,34.33
2019-01-04T01:44:54.562Z,33.83
2019-01-04T01:50:58.710Z,35.53
2019-01-04T01:56:04.320Z,34.57
2019-01-04T02:01:09.414Z,36.20
2019-01-04T02:06:14.490Z,37.53
2019-01-04T02:11:20.237Z,39.90
2019-01-04T02:16:25.593Z,41.33
2019-01-04T02:21:30.729Z,42.20
2019-01-04T02:26:35.831Z,41.43
2019-01-04T02:31:41.426Z,45.10
2019-01-04T02:36:46.874Z,37.97
2019-01-04T02:41:52.140Z,37.90
2019-01-04T02:46:57.242Z,42.80
2019-01-04T02:52:02.739Z,40.57
2019-01-04T02:57:07.792Z,42.50
2019-01-04T03:02:12.842Z,43.80
2019-01-04T03:07:18.307Z,41.77
2019-01-04T03:12:23.344Z,42.37
2019-01-04T03:17:28.453Z,43.20
2019-01-04T03:22:33.532Z,47.03
2019-01-04T03:27:38.739Z,47.70
2019-01-04T03:32:43.759Z,46.50
2019-01-04T03:37:48.742Z,46.43
2019-01-04T03:42:53.787Z,52.73
2019-01-04T03:48:01.099Z,53.50
2019-01-04T03:53:06.203Z,48.00
2019-01-04T03:58:12.625Z,46.17
2019-01-04T04:03:17.735Z,47.40
2019-01-04T04:08:22.850Z,47.77
2019-01-04T04:13:28.172Z,42.70
2019-01-04T04:18:33.218Z,50.77
2019-01-04T04:23:38.365Z,48.80
2019-01-04T04:28:44.185Z,48.20
2019-01-04T04:33:49.221Z,51.17
2019-01-04T04:38:54.359Z,46.10
2019-01-04T04:43:59.471Z,52.13
2019-01-04T04:49:04.528Z,54.13
2019-01-04T04:54:09.691Z,49.07
2019-01-04T04:59:14.851Z,54.10
2019-01-04T05:04:20.613Z,51.83
2019-01-04T05:09:25.657Z,51.10
2019-01-04T05:14:30.804Z,52.30
2019-01-04T05:19:37.149Z,45.00
2019-01-04T05:24:42.195Z,48.97
2019-01-04T05:29:47.222Z,50.17
2019-01-04T05:34:52.716Z,46.13
2019-01-04T05:39:57.719Z,48.63
2019-01-04T05:45:02.767Z,47.60
2019-01-04T05:50:08.204Z,49.47
2019-01-04T05:55:13.391Z,52.87
2019-01-04T06:00:18.453Z,47.37
2019-01-04T06:05:24.427Z,50.23
2019-01-04T06:10:29.530Z,45.77
2019-01-04T06:15:34.544Z,42.20
2019-01-04T06:20:40.896Z,49.17
2019-01-04T06:25:46.053Z,47.73
2019-01-04T06:30:51.343Z,42.77
2019-01-04T06:36:00.602Z,38.93
2019-01-04T06:41:05.954Z,44.43
2019-01-04T06:46:13.353Z,47.33
2019-01-04T06:51:18.877Z,45.50
2019-01-04T06:56:24.417Z,38.63
2019-01-04T07:01:29.605Z,41.30
2019-01-04T07:06:34.767Z,42.23
2019-01-04T07:11:40.305Z,41.90
2019-01-04T07:16:45.431Z,42.17
2019-01-04T07:21:50.586Z,46.77
2019-01-04T07:26:55.953Z,42.40
2019-01-04T07:32:03.299Z,37.47
2019-01-04T07:37:08.693Z,37.87
2019-01-04T07:42:14.347Z,40.83
2019-01-04T07:47:19.374Z,39.80
2019-01-04T07:52:25.073Z,37.67
2019-01-04T07:57:30.479Z,37.87
2019-01-04T08:02:49.776Z,36.87
2019-01-04T08:07:55.212Z,34.83
2019-01-04T08:13:00.890Z,38.10
2019-01-04T08:18:06.253Z,39.23
2019-01-04T08:23:13.401Z,37.83
2019-01-04T08:28:18.441Z,39.50
2019-01-04T08:33:26.365Z,40.17
2019-01-04T08:38:32.779Z,39.07
2019-01-04T08:43:38.449Z,39.70
2019-01-04T08:48:44.421Z,37.33
2019-01-04T08:53:57.442Z,37.60
2019-01-04T08:59:02.992Z,39.17
2019-01-04T09:04:08.545Z,45.97
2019-01-04T09:09:14.105Z,37.60
2019-01-04T09:14:19.335Z,41.30
2019-01-04T09:19:28.197Z,35.67
2019-01-04T09:24:33.881Z,40.20
2019-01-04T09:29:39.021Z,32.17
2019-01-04T09:34:44.151Z,32.10
2019-01-04T09:39:49.281Z,29.30
2019-01-04T09:44:54.565Z,35.20
2019-01-04T09:50:00.211Z,30.03
2019-01-04T09:55:05.555Z,28.67
2019-01-04T10:00:14.073Z,26.03
2019-01-04T10:05:19.253Z,27.73
2019-01-04T10:10:24.465Z,27.63
2019-01-04T10:15:29.513Z,29.70
2019-01-04T10:20:34.667Z,28.67
2019-01-04T10:25:39.769Z,31.90
2019-01-04T10:30:45.143Z,30.93
2019-01-04T10:35:50.251Z,30.30
2019-01-04T10:40:55.423Z,29.77
2019-01-04T10:46:01.037Z,25.80
2019-01-04T10:51:06.202Z,26.73
2019-01-04T10:56:11.416Z,28.50
2019-01-04T11:01:16.518Z,28.07
2019-01-04T11:06:21.706Z,28.50
2019-01-04T11:11:27.054Z,31.67
2019-01-04T11:16:32.839Z,27.57
2019-01-04T11:21:39.485Z,25.00
2019-01-04T11:26:51.928Z,36.40
2019-01-04T11:32:10.333Z,37.63
2019-01-04T11:38:07.713Z,36.33
2019-01-04T11:44:06.748Z,35.13
2019-01-04T11:50:02.304Z,31.87
2019-01-04T11:55:07.327Z,30.17
2019-01-04T12:00:12.989Z,30.57
2019-01-04T12:05:18.411Z,32.10
2019-01-04T12:10:23.511Z,32.37
2019-01-04T12:15:28.593Z,29.77
2019-01-04T12:20:33.959Z,34.63
2019-01-04T12:25:39.012Z,32.37
2019-01-04T12:30:44.111Z,26.13
2019-01-04T12:35:49.440Z,23.77
2019-01-04T12:40:54.696Z,23.50
2019-01-04T12:45:59.979Z,27.80
2019-01-04T12:51:05.733Z,26.37
2019-01-04T12:56:11.209Z,36.83
2019-01-04T13:01:21.575Z,32.90
2019-01-04T13:06:26.693Z,32.00
2019-01-04T13:11:31.933Z,35.30
2019-01-04T13:16:37.511Z,32.47
2019-01-04T13:21:42.961Z,26.67
2019-01-04T13:26:48.461Z,23.60
2019-01-04T13:32:07.069Z,25.93
2019-01-04T13:37:12.246Z,23.97
2019-01-04T13:42:17.841Z,23.87
2019-01-04T13:47:23.319Z,33.17
2019-01-04T13:52:28.947Z,24.80
2019-01-04T13:57:34.124Z,31.47
2019-01-04T14:02:44.346Z,30.47
2019-01-04T14:07:49.633Z,32.30
2019-01-04T14:12:54.801Z,32.77
2019-01-04T14:18:00.774Z,32.30
2019-01-04T14:23:06.579Z,37.80
2019-01-04T14:28:12.181Z,37.10
2019-01-04T14:33:35.339Z,42.20
2019-01-04T14:38:41.015Z,39.20
2019-01-04T14:43:46.373Z,38.77
2019-01-04T14:48:51.647Z,33.07
2019-01-04T14:53:56.749Z,29.80
2019-01-04T14:59:02.072Z,34.13
2019-01-04T15:04:07.504Z,38.70
2019-01-04T15:09:12.727Z,34.90
2019-01-04T15:14:17.917Z,32.70
2019-01-04T15:19:23.073Z,33.70
2019-01-04T15:24:28.428Z,27.27
2019-01-04T15:29:34.622Z,28.43
2019-01-04T15:34:39.900Z,30.57
2019-01-04T15:39:45.178Z,27.63
2019-01-04T15:44:50.393Z,25.77
2019-01-04T15:49:55.553Z,30.87
2019-01-04T15:55:00.725Z,32.33
2019-01-04T16:00:07.856Z,31.27
2019-01-04T16:05:13.134Z,31.20
2019-01-04T16:10:18.726Z,34.53
2019-01-04T16:15:24.206Z,30.17
2019-01-04T16:20:29.490Z,30.23
2019-01-04T16:25:34.523Z,31.40
2019-01-04T16:30:40.158Z,34.90
2019-01-04T16:35:45.334Z,38.20
2019-01-04T16:40:50.582Z,36.20
2019-01-04T16:45:55.737Z,36.40
2019-01-04T16:51:01.887Z,34.07
2019-01-04T16:56:07.230Z,31.80
2019-01-04T17:01:12.498Z,32.60
2019-01-04T17:06:17.764Z,34.90
2019-01-04T17:11:23.113Z,36.17
2019-01-04T17:16:28.811Z,33.87
2019-01-04T17:21:34.106Z,32.07
2019-01-04T17:26:39.800Z,38.47
2019-01-04T17:31:45.317Z,35.47
2019-01-04T17:36:50.780Z,34.17
2019-01-04T17:42:05.272Z,32.50
2019-01-04T17:47:10.838Z,32.47
2019-01-04T17:52:16.198Z,33.03
2019-01-04T17:57:22.004Z,35.87
2019-01-04T18:02:27.200Z,35.13
2019-01-04T18:07:32.800Z,36.33
2019-01-04T18:12:38.768Z,38.60
2019-01-04T18:17:44.680Z,33.03
2019-01-04T18:22:49.918Z,35.60
2019-01-04T18:27:55.279Z,34.50
2019-01-04T18:33:01.018Z,36.00
2019-01-04T18:38:06.298Z,36.13
2019-01-04T18:43:12.289Z,31.27
2019-01-04T18:48:17.748Z,32.03
2019-01-04T18:53:24.005Z,32.43
2019-01-04T18:58:29.578Z,32.13
2019-01-04T19:03:34.841Z,27.77
2019-01-04T19:08:40.231Z,26.00
2019-01-04T19:13:46.240Z,29.90
2019-01-04T19:18:52.790Z,31.57
2019-01-04T19:23:58.112Z,35.20
2019-01-04T19:29:05.200Z,30.70
2019-01-04T19:34:15.720Z,28.47
2019-01-04T19:39:20.863Z,34.93
2019-01-04T19:44:26.218Z,33.47
2019-01-04T19:49:31.838Z,28.73
2019-01-04T19:54:37.750Z,31.17
2019-01-04T19:59:44.396Z,29.27
2019-01-04T20:04:49.809Z,30.40
2019-01-04T20:10:48.630Z,30.93
2019-01-04T20:16:36.132Z,28.73
2019-01-04T20:21:59.210Z,28.97
2019-01-04T20:27:23.608Z,24.33
2019-01-04T20:32:53.678Z,27.77
2019-01-04T20:38:30.070Z,28.83
2019-01-04T20:44:00.896Z,30.00
2019-01-04T20:49:23.969Z,29.83
2019-01-04T20:54:47.658Z,36.30
2019-01-04T21:00:13.216Z,34.80
2019-01-04T21:05:42.824Z,32.77
2019-01-04T21:11:22.339Z,29.97
2019-01-04T21:16:45.432Z,26.63
2019-01-04T21:28:30.438Z,24.17
2019-01-04T21:33:53.654Z,29.17
2019-01-04T21:39:20.844Z,27.20
2019-01-04T21:44:57.078Z,30.77
2019-01-04T21:50:20.430Z,33.07
2019-01-04T21:55:42.958Z,28.37
2019-01-04T22:01:25.896Z,29.10
2019-01-04T22:06:52.802Z,31.73
2019-01-04T22:12:19.840Z,29.27
2019-01-04T22:17:45.668Z,32.53
2019-01-04T22:23:30.150Z,26.80
2019-01-04T22:29:00.546Z,29.00
2019-01-04T22:34:32.906Z,30.40
2019-01-04T22:40:07.702Z,28.50
2019-01-04T22:45:27.395Z,32.63
2019-01-04T22:50:50.361Z,27.27
2019-01-04T22:56:18.640Z,27.87
2019-01-04T23:01:59.780Z,33.80
2019-01-04T23:07:41.980Z,27.90
2019-01-04T23:13:15.887Z,26.33
2019-01-04T23:18:55.296Z,27.93
2019-01-04T23:24:18.264Z,23.87
2019-01-04T23:29:53.458Z,25.50
2019-01-04T23:35:18.409Z,23.03
2019-01-04T23:40:57.780Z,24.10
2019-01-04T23:46:27.370Z,26.97
2019-01-04T23:51:54.288Z,25.43
2019-01-04T23:57:24.167Z,27.23
